createdAt,value
2018-07-01T00:00:10.158Z,24.46
2018-07-01T00:01:10.062Z,24.43
2018-07-01T00:02:10.338Z,24.5
2018-07-01T00:03:10.099Z,24.41
2018-07-01T00:04:10.085Z,24.44
2018-07-01T00:05:10.164Z,24.48
2018-07-01T00:06:10.116Z,24.53
2018-07-01T00:07:10.115Z,24.41
2018-07-01T00:08:10.153Z,24.59
2018-07-01T00:09:10.131Z,24.55
2018-07-01T00:10:10.236Z,24.48
2018-07-01T00:11:10.109Z,24.58
2018-07-01T00:12:10.159Z,24.53
2018-07-01T00:13:10.180Z,24.59
2018-07-01T00:14:10.241Z,24.53
2018-07-01T00:15:10.197Z,24.53
2018-07-01T00:16:10.150Z,24.55
2018-07-01T00:17:10.154Z,24.58
2018-07-01T00:18:10.139Z,24.51
2018-07-01T00:19:10.145Z,24.4
2018-07-01T00:20:10.162Z,24.53
2018-07-01T00:21:10.137Z,24.46
2018-07-01T00:22:10.211Z,24.48
2018-07-01T00:23:11.248Z,24.43
2018-07-01T00:24:10.147Z,24.47
2018-07-01T00:25:10.110Z,24.43
2018-07-01T00:26:10.160Z,24.5
2018-07-01T00:27:10.144Z,24.38
2018-07-01T00:28:10.170Z,24.37
2018-07-01T00:29:10.131Z,24.36
2018-07-01T00:30:10.213Z,24.47
2018-07-01T00:31:10.737Z,24.38
2018-07-01T00:32:10.176Z,24.37
2018-07-01T00:33:10.153Z,24.34
2018-07-01T00:34:10.166Z,24.34
2018-07-01T00:35:10.182Z,24.36
2018-07-01T00:36:10.177Z,24.37
2018-07-01T00:37:10.143Z,24.38
2018-07-01T00:38:10.115Z,24.38
2018-07-01T00:39:10.196Z,24.29
2018-07-01T00:40:10.132Z,24.36
2018-07-01T00:41:10.162Z,24.29
2018-07-01T00:42:10.183Z,24.28
2018-07-01T00:43:11.296Z,24.31
2018-07-01T00:44:10.188Z,24.28
2018-07-01T00:45:10.181Z,24.32
2018-07-01T00:46:10.213Z,24.29
2018-07-01T00:47:10.175Z,24.29
2018-07-01T00:48:10.175Z,24.31
2018-07-01T00:49:10.168Z,24.28
2018-07-01T00:50:10.577Z,24.24
2018-07-01T00:51:10.180Z,24.22
2018-07-01T00:52:10.179Z,24.26
2018-07-01T00:53:10.211Z,24.31
2018-07-01T00:54:10.268Z,24.21
2018-07-01T00:55:10.221Z,24.36
2018-07-01T00:56:10.227Z,24.21
2018-07-01T00:57:10.181Z,24.22
2018-07-01T00:58:10.187Z,24.18
2018-07-01T00:59:10.193Z,24.21
2018-07-01T01:06:38.579Z,24.13
2018-07-01T01:06:50.001Z,24.11
2018-07-01T01:07:50.041Z,24.21
2018-07-01T01:08:50.063Z,24.24
2018-07-01T01:09:50.018Z,24.11
2018-07-01T01:10:50.032Z,24.1
2018-07-01T01:11:50.081Z,24.09
2018-07-01T01:12:50.071Z,24.24
2018-07-01T01:13:50.053Z,24.09
2018-07-01T01:14:50.033Z,24.11
2018-07-01T01:15:50.056Z,24.21
2018-07-01T01:16:50.729Z,24.14
2018-07-01T01:17:50.101Z,24.21
2018-07-01T01:18:50.080Z,24.14
2018-07-01T01:19:50.063Z,24.18
2018-07-01T01:20:50.065Z,24.1
2018-07-01T01:21:50.048Z,24.21
2018-07-01T01:22:50.106Z,24.11
2018-07-01T01:23:50.091Z,24.13
2018-07-01T01:24:50.115Z,24.09
2018-07-01T01:25:50.054Z,24.25
2018-07-01T01:26:50.083Z,24.21
2018-07-01T01:27:50.058Z,24.1
2018-07-01T01:28:50.045Z,24.1
2018-07-01T01:29:50.072Z,24.21
2018-07-01T01:30:50.144Z,24.21
2018-07-01T01:31:50.041Z,24.14
2018-07-01T01:32:50.077Z,24.13
2018-07-01T01:33:50.049Z,24.16
2018-07-01T01:34:50.132Z,24.22
2018-07-01T01:35:50.089Z,24.11
2018-07-01T01:36:50.092Z,24.13
2018-07-01T01:37:50.073Z,24.18
2018-07-01T01:38:50.056Z,24.11
2018-07-01T01:39:50.090Z,24.1
2018-07-01T01:40:50.068Z,24.18
2018-07-01T01:41:50.024Z,24.14
2018-07-01T01:42:50.182Z,24.18
2018-07-01T01:43:50.039Z,24.24
2018-07-01T01:44:50.091Z,24.21
2018-07-01T01:45:50.102Z,24.14
2018-07-01T01:46:50.166Z,24.22
2018-07-01T01:47:50.059Z,24.11
2018-07-01T01:48:50.140Z,24.21
2018-07-01T01:49:50.083Z,24.11
2018-07-01T01:50:50.087Z,24.24
2018-07-01T01:51:50.119Z,24.13
2018-07-01T01:52:50.144Z,24.25
2018-07-01T01:53:50.085Z,24.13
2018-07-01T01:54:50.135Z,24.25
2018-07-01T01:55:50.803Z,24.22
2018-07-01T01:56:50.072Z,24.29
2018-07-01T01:57:50.138Z,24.13
2018-07-01T01:58:50.160Z,24.22
2018-07-01T01:59:50.094Z,24.22
2018-07-01T02:00:50.151Z,24.11
2018-07-01T02:01:50.124Z,24.19
2018-07-01T02:02:51.087Z,24.1
2018-07-01T02:03:50.139Z,24.24
2018-07-01T02:04:50.109Z,24.13
2018-07-01T02:05:50.385Z,24.13
2018-07-01T02:06:50.141Z,24.07
2018-07-01T02:07:50.114Z,24.24
2018-07-01T02:08:50.205Z,24.18
2018-07-01T02:09:50.169Z,24.16
2018-07-01T02:10:50.134Z,24.13
2018-07-01T02:11:50.122Z,24.22
2018-07-01T02:12:50.147Z,24.13
2018-07-01T02:13:50.184Z,24.16
2018-07-01T02:14:50.105Z,24.16
2018-07-01T02:15:50.118Z,24.19
2018-07-01T02:16:50.121Z,24.18
2018-07-01T02:17:50.134Z,24.21
2018-07-01T02:18:50.133Z,24.11
2018-07-01T02:19:50.120Z,24.13
2018-07-01T02:20:50.153Z,24.11
2018-07-01T02:21:50.158Z,24.21
2018-07-01T02:22:50.254Z,24.11
2018-07-01T02:23:50.180Z,24.19
2018-07-01T02:24:50.154Z,24.1
2018-07-01T02:25:50.183Z,24.1
2018-07-01T02:26:50.200Z,24.13
2018-07-01T02:27:50.169Z,24.14
2018-07-01T02:28:50.122Z,24.14
2018-07-01T02:29:50.159Z,24.24
2018-07-01T02:30:50.168Z,24.11
2018-07-01T02:31:50.204Z,24.13
2018-07-01T02:32:50.206Z,24.1
2018-07-01T02:33:50.217Z,24.18
2018-07-01T02:34:50.172Z,24.21
2018-07-01T02:35:50.165Z,24.11
2018-07-01T02:36:50.202Z,24.19
2018-07-01T02:37:50.182Z,24.19
2018-07-01T02:38:50.145Z,24.11
2018-07-01T02:39:50.279Z,24.18
2018-07-01T02:40:50.206Z,24.16
2018-07-01T02:41:50.161Z,24.18
2018-07-01T02:42:50.200Z,24.16
2018-07-01T02:43:50.168Z,24.19
2018-07-01T02:44:50.264Z,24.13
2018-07-01T02:46:06.372Z,24.18
2018-07-01T02:47:06.381Z,24.13
2018-07-01T02:48:06.366Z,24.11
2018-07-01T02:49:06.361Z,24.18
2018-07-01T02:50:06.373Z,24.06
2018-07-01T02:51:06.371Z,24.14
2018-07-01T02:52:06.358Z,24.1
2018-07-01T02:53:06.366Z,24.18
2018-07-01T02:54:06.374Z,24.1
2018-07-01T02:55:06.378Z,24.22
2018-07-01T02:56:06.386Z,24.14
2018-07-01T02:57:06.410Z,24.14
2018-07-01T02:58:06.394Z,24.21
2018-07-01T02:59:06.399Z,24.21
2018-07-01T03:00:06.413Z,24.14
2018-07-01T03:01:06.446Z,24.14
2018-07-01T03:02:06.369Z,24.16
2018-07-01T03:03:06.376Z,24.18
2018-07-01T03:04:06.383Z,24.18
2018-07-01T03:05:06.362Z,24.16
2018-07-01T03:06:06.393Z,24.19
2018-07-01T03:07:06.386Z,24.14
2018-07-01T03:08:06.409Z,24.16
2018-07-01T03:09:06.412Z,24.18
2018-07-01T03:10:06.392Z,24.13
2018-07-01T03:11:06.396Z,24.09
2018-07-01T03:12:06.413Z,24.16
2018-07-01T03:13:06.383Z,24.13
2018-07-01T03:14:06.425Z,24.07
2018-07-01T03:15:06.482Z,24.18
2018-07-01T03:16:06.456Z,24.11
2018-07-01T03:17:06.397Z,24.06
2018-07-01T03:18:06.457Z,24.13
2018-07-01T03:19:06.437Z,24.13
2018-07-01T03:20:06.377Z,24.14
2018-07-01T03:21:06.418Z,24.09
2018-07-01T03:22:06.392Z,24.14
2018-07-01T03:23:06.455Z,24.06
2018-07-01T03:24:06.439Z,24.16
2018-07-01T03:25:06.422Z,24.11
2018-07-01T03:26:06.443Z,24.11
2018-07-01T03:27:06.459Z,24.13
2018-07-01T03:28:06.486Z,24.04
2018-07-01T03:29:06.418Z,24.11
2018-07-01T03:30:06.425Z,24.14
2018-07-01T03:31:06.450Z,24.16
2018-07-01T03:32:06.416Z,24.16
2018-07-01T03:33:06.421Z,24.09
2018-07-01T03:34:06.430Z,24.1
2018-07-01T03:35:06.465Z,24.1
2018-07-01T03:36:06.492Z,24.22
2018-07-01T03:37:06.426Z,24.1
2018-07-01T03:38:06.449Z,24.14
2018-07-01T03:39:06.448Z,24.16
2018-07-01T03:40:06.443Z,24.11
2018-07-01T03:41:07.839Z,24.1
2018-07-01T03:42:06.472Z,24.13
2018-07-01T03:43:06.451Z,24.11
2018-07-01T03:44:06.470Z,24.14
2018-07-01T03:45:06.515Z,24.16
2018-07-01T03:46:06.495Z,24.11
2018-07-01T03:47:06.457Z,24.18
2018-07-01T03:48:06.491Z,24.14
2018-07-01T03:49:06.477Z,24.19
2018-07-01T03:50:06.518Z,24.21
2018-07-01T03:51:06.478Z,24.16
2018-07-01T03:52:06.472Z,24.18
2018-07-01T03:53:06.494Z,24.22
2018-07-01T03:54:06.465Z,24.11
2018-07-01T03:55:06.494Z,24.07
2018-07-01T03:56:06.473Z,24.18
2018-07-01T03:57:06.528Z,24.13
2018-07-01T03:58:06.512Z,24.11
2018-07-01T03:59:06.492Z,24.1
2018-07-01T04:00:06.484Z,24.13
2018-07-01T04:01:06.496Z,24.1
2018-07-01T04:02:06.573Z,24.11
2018-07-01T04:03:06.520Z,24.1
2018-07-01T04:04:06.522Z,24.11
2018-07-01T04:05:06.551Z,24.18
2018-07-01T04:06:06.528Z,24.16
2018-07-01T04:07:06.504Z,24.13
2018-07-01T04:08:06.589Z,24.14
2018-07-01T04:09:06.519Z,24.19
2018-07-01T04:10:06.561Z,24.28
2018-07-01T04:11:06.584Z,24.16
2018-07-01T04:12:06.514Z,24.18
2018-07-01T04:13:06.542Z,24.24
2018-07-01T04:14:06.528Z,24.18
2018-07-01T04:15:06.511Z,24.16
2018-07-01T04:16:06.541Z,24.11
2018-07-01T04:17:06.552Z,24.11
2018-07-01T04:18:06.553Z,24.24
2018-07-01T04:19:06.510Z,24.22
2018-07-01T04:20:06.542Z,24.09
2018-07-01T04:21:06.520Z,24.13
2018-07-01T04:22:06.526Z,24.14
2018-07-01T04:23:06.509Z,24.07
2018-07-01T04:24:06.545Z,24.16
2018-07-01T04:25:06.676Z,24.16
2018-07-01T04:26:06.579Z,24.1
2018-07-01T04:27:06.483Z,24.14
2018-07-01T04:28:06.538Z,24.24
2018-07-01T04:29:06.548Z,24.21
2018-07-01T04:30:06.539Z,24.14
2018-07-01T04:31:06.667Z,24.21
2018-07-01T04:32:06.526Z,24.22
2018-07-01T04:33:06.498Z,24.13
2018-07-01T04:34:06.535Z,24.28
2018-07-01T04:35:06.519Z,24.1
2018-07-01T04:36:06.516Z,24.18
2018-07-01T04:37:06.520Z,24.07
2018-07-01T04:38:06.556Z,24.22
2018-07-01T04:39:06.565Z,24.14
2018-07-01T04:40:06.553Z,24.11
2018-07-01T04:41:06.559Z,24.14
2018-07-01T04:42:06.592Z,24.22
2018-07-01T04:43:06.573Z,24.1
2018-07-01T04:44:06.531Z,24.1
2018-07-01T04:45:06.558Z,24.21
2018-07-01T04:46:06.567Z,24.13
2018-07-01T04:47:06.537Z,24.18
2018-07-01T04:48:06.529Z,24.19
2018-07-01T04:49:06.621Z,24.24
2018-07-01T04:50:06.582Z,24.18
2018-07-01T04:51:06.596Z,24.16
2018-07-01T04:52:06.574Z,24.24
2018-07-01T04:53:06.605Z,24.18
2018-07-01T04:54:06.587Z,24.11
2018-07-01T04:55:06.706Z,24.18
2018-07-01T04:56:06.581Z,24.18
2018-07-01T04:57:06.561Z,24.21
2018-07-01T04:58:06.584Z,24.24
2018-07-01T04:59:06.604Z,24.13
2018-07-01T05:00:06.610Z,24.16
2018-07-01T05:01:06.604Z,24.21
2018-07-01T05:02:06.686Z,24.22
2018-07-01T05:03:06.601Z,24.25
2018-07-01T05:04:06.604Z,24.24
2018-07-01T05:05:06.672Z,24.18
2018-07-01T05:06:06.614Z,24.21
2018-07-01T05:07:06.652Z,24.16
2018-07-01T05:08:06.604Z,24.29
2018-07-01T05:09:06.680Z,24.28
2018-07-01T05:10:06.568Z,24.21
2018-07-01T05:11:06.672Z,24.22
2018-07-01T05:12:06.579Z,24.26
2018-07-01T05:13:06.642Z,24.29
2018-07-01T05:14:06.615Z,24.24
2018-07-01T05:15:06.648Z,24.22
2018-07-01T05:16:07.280Z,24.24
2018-07-01T05:17:07.089Z,24.22
2018-07-01T05:18:06.636Z,24.1
2018-07-01T05:19:06.682Z,24.21
2018-07-01T05:23:38.426Z,24.18
2018-07-01T05:24:38.349Z,24.19
2018-07-01T05:25:38.300Z,24.25
2018-07-01T05:26:38.354Z,24.21
2018-07-01T05:27:38.390Z,24.25
2018-07-01T05:28:38.323Z,24.28
2018-07-01T05:29:38.309Z,24.19
2018-07-01T05:30:38.344Z,24.19
2018-07-01T05:31:38.320Z,24.19
2018-07-01T05:32:38.842Z,24.22
2018-07-01T05:33:38.344Z,24.22
2018-07-01T05:34:38.323Z,24.18
2018-07-01T05:35:38.396Z,24.21
2018-07-01T05:36:38.325Z,24.18
2018-07-01T05:37:38.364Z,24.28
2018-07-01T05:38:38.317Z,24.22
2018-07-01T05:39:38.342Z,24.19
2018-07-01T05:40:38.354Z,24.19
2018-07-01T05:41:38.991Z,24.25
2018-07-01T05:42:38.345Z,24.19
2018-07-01T05:43:38.348Z,24.24
2018-07-01T05:44:38.374Z,24.25
2018-07-01T05:45:38.393Z,24.26
2018-07-01T05:46:38.348Z,24.14
2018-07-01T05:47:38.367Z,24.21
2018-07-01T05:48:38.357Z,24.22
2018-07-01T05:49:38.384Z,24.21
2018-07-01T05:50:38.361Z,24.18
2018-07-01T05:51:38.351Z,24.26
2018-07-01T05:52:38.363Z,24.22
2018-07-01T05:53:38.355Z,24.18
2018-07-01T05:54:38.370Z,24.26
2018-07-01T05:55:38.356Z,24.22
2018-07-01T05:56:38.387Z,24.25
2018-07-01T05:57:38.377Z,24.22
2018-07-01T05:58:38.392Z,24.19
2018-07-01T05:59:38.408Z,24.21
2018-07-01T06:00:38.411Z,24.19
2018-07-01T06:01:38.407Z,24.22
2018-07-01T06:02:38.348Z,24.24
2018-07-01T06:03:38.382Z,24.24
2018-07-01T06:04:38.455Z,24.16
2018-07-01T06:05:38.416Z,24.24
2018-07-01T06:06:38.344Z,24.21
2018-07-01T06:07:38.449Z,24.24
2018-07-01T06:08:38.508Z,24.21
2018-07-01T06:09:38.411Z,24.16
2018-07-01T06:10:38.361Z,24.25
2018-07-01T06:11:38.448Z,24.16
2018-07-01T06:12:38.405Z,24.14
2018-07-01T06:13:38.376Z,24.19
2018-07-01T06:14:38.413Z,24.22
2018-07-01T06:15:38.427Z,24.22
2018-07-01T06:16:38.531Z,24.18
2018-07-01T06:17:38.355Z,24.16
2018-07-01T06:18:38.345Z,24.22
2018-07-01T06:19:38.392Z,24.25
2018-07-01T06:20:38.411Z,24.21
2018-07-01T06:21:38.413Z,24.16
2018-07-01T06:22:38.416Z,24.18
2018-07-01T06:23:38.405Z,24.19
2018-07-01T06:24:38.546Z,24.21
2018-07-01T06:25:38.418Z,24.24
2018-07-01T06:26:38.391Z,24.22
2018-07-01T06:27:38.426Z,24.24
2018-07-01T06:28:38.378Z,24.18
2018-07-01T06:29:38.391Z,24.18
2018-07-01T06:30:38.422Z,24.25
2018-07-01T06:31:38.433Z,24.22
2018-07-01T06:32:38.415Z,24.29
2018-07-01T06:33:38.424Z,24.22
2018-07-01T06:34:38.430Z,24.22
2018-07-01T06:35:38.405Z,24.18
2018-07-01T06:36:38.405Z,24.18
2018-07-01T06:37:38.449Z,24.09
2018-07-01T06:38:38.480Z,24.14
2018-07-01T06:39:38.500Z,24.18
2018-07-01T06:40:38.442Z,24.24
2018-07-01T06:41:38.450Z,24.1
2018-07-01T06:42:38.465Z,24.22
2018-07-01T06:43:38.427Z,24.22
2018-07-01T06:44:38.440Z,24.19
2018-07-01T06:45:38.469Z,24.16
2018-07-01T06:46:38.472Z,24.16
2018-07-01T06:47:38.505Z,24.22
2018-07-01T06:48:38.440Z,24.24
2018-07-01T06:49:38.485Z,24.19
2018-07-01T06:50:38.495Z,24.22
2018-07-01T06:51:38.496Z,24.18
2018-07-01T06:52:38.506Z,24.28
2018-07-01T06:53:38.488Z,24.25
2018-07-01T06:54:38.424Z,24.21
2018-07-01T06:55:38.457Z,24.14
2018-07-01T06:56:38.511Z,24.14
2018-07-01T06:57:38.513Z,24.21
2018-07-01T06:58:38.561Z,24.24
2018-07-01T06:59:38.484Z,24.18
2018-07-01T07:00:38.516Z,24.19
2018-07-01T07:01:38.467Z,24.24
2018-07-01T07:02:38.535Z,24.21
2018-07-01T07:03:38.514Z,24.22
2018-07-01T07:04:38.536Z,24.21
2018-07-01T07:05:38.528Z,24.22
2018-07-01T07:06:38.418Z,24.21
2018-07-01T07:07:38.458Z,24.21
2018-07-01T07:08:38.494Z,24.14
2018-07-01T07:09:38.474Z,24.21
2018-07-01T07:10:38.601Z,24.16
2018-07-01T07:11:38.503Z,24.25
2018-07-01T07:12:38.509Z,24.13
2018-07-01T07:13:38.478Z,24.13
2018-07-01T07:14:38.469Z,24.11
2018-07-01T07:15:45.417Z,24.21
2018-07-01T07:16:40.506Z,24.11
2018-07-01T07:17:45.300Z,24.1
2018-07-01T07:18:38.478Z,24.09
2018-07-01T07:19:38.536Z,24.14
2018-07-01T07:20:38.462Z,24.18
2018-07-01T07:21:38.527Z,24.18
2018-07-01T07:22:38.519Z,24.13
2018-07-01T07:23:38.495Z,24.09
2018-07-01T07:24:38.589Z,24.14
2018-07-01T07:25:38.526Z,24.14
2018-07-01T07:26:38.482Z,24.24
2018-07-01T07:27:38.508Z,24.21
2018-07-01T07:28:38.492Z,24.19
2018-07-01T07:29:38.502Z,24.19
2018-07-01T07:30:38.603Z,24.13
2018-07-01T07:31:38.642Z,24.18
2018-07-01T07:32:38.497Z,24.16
2018-07-01T07:33:38.552Z,24.11
2018-07-01T07:34:38.480Z,24.13
2018-07-01T07:35:38.506Z,24.11
2018-07-01T07:36:38.541Z,24.07
2018-07-01T07:37:38.551Z,24.13
2018-07-01T07:38:38.553Z,24.1
2018-07-01T07:39:38.541Z,24.06
2018-07-01T07:40:38.544Z,24.04
2018-07-01T07:41:38.532Z,24.06
2018-07-01T07:42:38.528Z,24.11
2018-07-01T07:43:38.563Z,24.13
2018-07-01T07:44:38.550Z,24.13
2018-07-01T07:45:38.573Z,24.07
2018-07-01T07:46:38.537Z,24.09
2018-07-01T07:47:38.539Z,24.06
2018-07-01T07:48:38.544Z,24.03
2018-07-01T07:49:38.557Z,24.1
2018-07-01T07:50:38.539Z,24.13
2018-07-01T07:51:38.565Z,24.04
2018-07-01T07:52:39.012Z,24.1
2018-07-01T07:53:38.547Z,24.11
2018-07-01T07:54:38.533Z,24.09
2018-07-01T07:55:38.593Z,24.11
2018-07-01T07:56:38.541Z,24.14
2018-07-01T07:57:38.524Z,24.11
2018-07-01T07:58:38.625Z,24.11
2018-07-01T07:59:38.542Z,24.1
2018-07-01T08:00:38.626Z,24.13
2018-07-01T08:01:38.580Z,24.07
2018-07-01T08:02:38.555Z,24.03
2018-07-01T08:03:38.589Z,24.16
2018-07-01T08:04:38.989Z,24.14
2018-07-01T08:05:38.610Z,24.07
2018-07-01T08:06:38.563Z,24.1
2018-07-01T08:07:38.594Z,24.03
2018-07-01T08:08:38.549Z,24.06
2018-07-01T08:09:38.553Z,24.09
2018-07-01T08:10:39.224Z,24.06
2018-07-01T08:11:38.593Z,24.07
2018-07-01T08:12:38.583Z,24.1
2018-07-01T08:13:38.549Z,24.04
2018-07-01T08:14:38.613Z,24.07
2018-07-01T08:15:40.155Z,24.11
2018-07-01T08:16:38.599Z,24.14
2018-07-01T08:17:38.582Z,24
2018-07-01T08:18:38.643Z,24.09
2018-07-01T08:19:38.684Z,24.11
2018-07-01T08:20:39.283Z,23.99
2018-07-01T08:21:38.560Z,24.13
2018-07-01T08:22:40.030Z,24.06
2018-07-01T08:23:38.670Z,24.03
2018-07-01T08:24:38.657Z,24.04
2018-07-01T08:25:39.374Z,23.99
2018-07-01T08:26:38.618Z,24.06
2018-07-01T08:27:38.716Z,24.06
2018-07-01T08:28:38.685Z,24.13
2018-07-01T08:29:38.719Z,24.18
2018-07-01T08:30:39.478Z,24.07
2018-07-01T08:31:38.598Z,24.07
2018-07-01T08:32:38.656Z,24.09
2018-07-01T08:33:38.686Z,24.1
2018-07-01T08:38:07.773Z,24.13
2018-07-01T08:39:07.724Z,24.21
2018-07-01T08:40:07.743Z,24.14
2018-07-01T08:41:07.813Z,24.19
2018-07-01T08:42:07.801Z,24.18
2018-07-01T08:43:07.695Z,24.16
2018-07-01T08:44:07.749Z,24.13
2018-07-01T08:45:07.785Z,24.22
2018-07-01T08:46:07.814Z,24.11
2018-07-01T08:47:07.875Z,24.1
2018-07-01T08:48:07.813Z,24.16
2018-07-01T08:49:07.790Z,24.03
2018-07-01T08:50:07.770Z,24.11
2018-07-01T08:53:15.195Z,24.13
2018-07-01T08:53:26.756Z,24.14
2018-07-01T08:54:27.410Z,24.16
2018-07-01T08:55:26.772Z,24.14
2018-07-01T08:56:26.724Z,24.11
2018-07-01T08:57:26.808Z,24.1
2018-07-01T08:58:26.706Z,24.1
2018-07-01T08:59:26.758Z,24.07
2018-07-01T09:00:26.647Z,24.11
2018-07-01T09:01:26.691Z,24.13
2018-07-01T09:02:26.720Z,24.07
2018-07-01T09:03:26.714Z,24.11
2018-07-01T09:04:26.702Z,24.18
2018-07-01T09:05:26.704Z,24.16
2018-07-01T09:06:27.125Z,24.11
2018-07-01T09:07:26.747Z,24.13
2018-07-01T09:08:26.834Z,24.1
2018-07-01T09:09:26.688Z,24.22
2018-07-01T09:10:26.641Z,24.1
2018-07-01T09:11:26.715Z,24.14
2018-07-01T09:12:40.221Z,24.1
2018-07-01T09:13:26.780Z,24.13
2018-07-01T09:14:26.791Z,24.14
2018-07-01T09:15:26.749Z,24.16
2018-07-01T09:16:26.961Z,24.14
2018-07-01T09:17:26.759Z,24.13
2018-07-01T09:18:27.046Z,24.19
2018-07-01T09:19:26.670Z,24.13
2018-07-01T09:20:26.723Z,24.09
2018-07-01T09:21:26.696Z,24.1
2018-07-01T09:22:26.698Z,24.24
2018-07-01T09:23:26.818Z,24.11
2018-07-01T09:24:26.754Z,24.19
2018-07-01T09:25:26.766Z,24.18
2018-07-01T09:26:26.735Z,24.22
2018-07-01T09:27:26.752Z,24.26
2018-07-01T09:28:26.840Z,24.21
2018-07-01T09:29:26.862Z,24.19
2018-07-01T09:30:26.892Z,24.19
2018-07-01T09:31:26.740Z,24.16
2018-07-01T09:32:26.705Z,24.22
2018-07-01T09:33:26.686Z,24.25
2018-07-01T09:34:26.834Z,24.18
2018-07-01T09:35:26.697Z,24.26
2018-07-01T09:36:26.755Z,24.19
2018-07-01T09:37:26.713Z,24.21
2018-07-01T09:38:26.723Z,24.29
2018-07-01T09:39:26.720Z,24.28
2018-07-01T09:40:26.759Z,24.24
2018-07-01T09:41:26.785Z,24.25
2018-07-01T09:42:26.821Z,24.31
2018-07-01T09:43:26.934Z,24.29
2018-07-01T09:44:26.761Z,24.29
2018-07-01T09:45:26.763Z,24.19
2018-07-01T09:46:26.740Z,24.32
2018-07-01T09:47:26.730Z,24.34
2018-07-01T09:48:26.680Z,24.19
2018-07-01T09:49:27.655Z,24.31
2018-07-01T09:50:26.910Z,24.28
2018-07-01T09:51:26.953Z,24.34
2018-07-01T09:52:26.857Z,24.36
2018-07-01T09:53:27.152Z,24.25
2018-07-01T09:54:26.711Z,24.25
2018-07-01T09:55:26.781Z,24.29
2018-07-01T09:56:27.551Z,24.28
2018-07-01T09:57:26.760Z,24.31
2018-07-01T09:58:26.776Z,24.24
2018-07-01T09:59:27.580Z,24.31
2018-07-01T10:00:26.784Z,24.32
2018-07-01T10:01:26.860Z,24.31
2018-07-01T10:02:26.764Z,24.36
2018-07-01T10:03:26.747Z,24.34
2018-07-01T10:04:26.776Z,24.32
2018-07-01T10:05:26.758Z,24.28
2018-07-01T10:06:32.363Z,24.37
2018-07-01T10:07:27.316Z,24.34
2018-07-01T10:08:26.833Z,24.29
2018-07-01T10:09:26.799Z,24.34
2018-07-01T10:10:26.793Z,24.25
2018-07-01T10:11:26.809Z,24.28
2018-07-01T10:12:26.758Z,24.32
2018-07-01T10:13:26.814Z,24.26
2018-07-01T10:14:26.818Z,24.25
2018-07-01T10:15:26.856Z,24.26
2018-07-01T10:16:26.759Z,24.28
2018-07-01T10:17:26.819Z,24.29
2018-07-01T10:18:26.878Z,24.24
2018-07-01T10:19:26.780Z,24.14
2018-07-01T10:20:26.862Z,24.11
2018-07-01T10:24:54.952Z,24.24
2018-07-01T10:25:55.879Z,24.25
2018-07-01T10:26:54.931Z,24.28
2018-07-01T10:27:55.099Z,24.28
2018-07-01T10:28:54.904Z,24.26
2018-07-01T10:29:54.998Z,24.31
2018-07-01T10:30:54.942Z,24.28
2018-07-01T10:31:54.971Z,24.31
2018-07-01T10:32:54.977Z,24.28
2018-07-01T10:33:54.921Z,24.28
2018-07-01T10:34:54.955Z,24.32
2018-07-01T10:35:54.949Z,24.34
2018-07-01T10:36:54.920Z,24.32
2018-07-01T10:37:54.985Z,24.4
2018-07-01T10:38:54.937Z,24.32
2018-07-01T10:39:54.915Z,24.28
2018-07-01T10:40:54.965Z,24.32
2018-07-01T10:41:55.104Z,24.29
2018-07-01T10:42:55.018Z,24.29
2018-07-01T10:43:54.989Z,24.38
2018-07-01T10:44:54.932Z,24.31
2018-07-01T10:45:55.077Z,24.37
2018-07-01T10:46:55.024Z,24.28
2018-07-01T10:47:54.974Z,24.38
2018-07-01T10:48:55.033Z,24.31
2018-07-01T10:49:54.951Z,24.31
2018-07-01T10:50:54.975Z,24.32
2018-07-01T10:51:54.937Z,24.37
2018-07-01T10:52:54.975Z,24.32
2018-07-01T10:53:54.950Z,24.32
2018-07-01T10:54:54.963Z,24.29
2018-07-01T10:55:55.025Z,24.36
2018-07-01T10:56:55.037Z,24.31
2018-07-01T10:57:55.008Z,24.31
2018-07-01T10:58:55.043Z,24.29
2018-07-01T10:59:55.007Z,24.38
2018-07-01T11:00:55.026Z,24.4
2018-07-01T11:01:55.004Z,24.26
2018-07-01T11:02:54.965Z,24.31
2018-07-01T11:03:55.045Z,24.41
2018-07-01T11:04:55.029Z,24.31
2018-07-01T11:05:55.348Z,24.28
2018-07-01T11:06:55.022Z,24.31
2018-07-01T11:07:55.023Z,24.31
2018-07-01T11:08:55.805Z,24.26
2018-07-01T11:09:54.967Z,24.32
2018-07-01T11:10:55.017Z,24.25
2018-07-01T11:11:55.026Z,24.29
2018-07-01T11:12:55.009Z,24.29
2018-07-01T11:13:55.040Z,24.26
2018-07-01T11:14:54.998Z,24.31
2018-07-01T11:15:55.069Z,24.36
2018-07-01T11:16:55.014Z,24.32
2018-07-01T11:17:55.025Z,24.31
2018-07-01T11:18:55.109Z,24.32
2018-07-01T11:19:55.056Z,24.36
2018-07-01T11:20:55.064Z,24.29
2018-07-01T11:21:54.972Z,24.32
2018-07-01T11:22:55.047Z,24.29
2018-07-01T11:23:55.854Z,24.32
2018-07-01T11:24:55.005Z,24.29
2018-07-01T11:25:55.009Z,24.32
2018-07-01T11:26:59.876Z,24.31
2018-07-01T11:27:55.075Z,24.28
2018-07-01T11:28:56.211Z,24.31
2018-07-01T11:30:04.268Z,24.32
2018-07-01T11:30:55.051Z,24.31
2018-07-01T11:31:56.379Z,24.31
2018-07-01T11:33:01.924Z,24.25
2018-07-01T11:33:57.124Z,24.29
2018-07-01T11:34:57.709Z,24.31
2018-07-01T11:35:55.038Z,24.32
2018-07-01T11:36:59.282Z,24.37
2018-07-01T11:37:55.121Z,24.28
2018-07-01T11:38:55.102Z,24.34
2018-07-01T11:39:55.104Z,24.34
2018-07-01T11:40:55.752Z,24.34
2018-07-01T11:41:55.068Z,24.31
2018-07-01T11:42:55.244Z,24.29
2018-07-01T11:44:11.395Z,24.28
2018-07-01T11:45:11.377Z,24.26
2018-07-01T11:46:11.505Z,24.32
2018-07-01T11:47:11.314Z,24.29
2018-07-01T11:48:11.349Z,24.28
2018-07-01T11:49:11.402Z,24.26
2018-07-01T11:50:11.409Z,24.26
2018-07-01T11:51:11.390Z,24.32
2018-07-01T11:52:11.477Z,24.26
2018-07-01T11:53:11.450Z,24.32
2018-07-01T11:54:11.454Z,24.34
2018-07-01T11:55:11.440Z,24.36
2018-07-01T11:56:11.343Z,24.21
2018-07-01T11:57:11.354Z,24.24
2018-07-01T11:58:11.769Z,24.25
2018-07-01T11:59:11.361Z,24.36
2018-07-01T12:00:11.366Z,24.26
2018-07-01T12:01:11.401Z,24.31
2018-07-01T12:02:11.441Z,24.24
2018-07-01T12:03:11.413Z,24.22
2018-07-01T12:04:12.705Z,24.22
2018-07-01T12:05:16.652Z,24.28
2018-07-01T12:06:11.414Z,24.26
2018-07-01T12:07:11.419Z,24.21
2018-07-01T12:08:11.481Z,24.22
2018-07-01T12:09:11.407Z,24.29
2018-07-01T12:10:12.132Z,24.32
2018-07-01T12:11:11.430Z,24.38
2018-07-01T12:15:40.529Z,24.26
2018-07-01T12:16:40.069Z,24.29
2018-07-01T12:17:40.045Z,24.31
2018-07-01T12:18:40.147Z,24.25
2018-07-01T12:19:40.173Z,24.28
2018-07-01T12:20:40.131Z,24.24
2018-07-01T12:21:40.105Z,24.26
2018-07-01T12:22:40.166Z,24.25
2018-07-01T12:23:40.190Z,24.24
2018-07-01T12:24:40.124Z,24.26
2018-07-01T12:25:40.167Z,24.21
2018-07-01T12:26:40.143Z,24.24
2018-07-01T12:27:40.175Z,24.22
2018-07-01T12:28:40.104Z,24.22
2018-07-01T12:29:40.181Z,24.29
2018-07-01T12:30:40.142Z,24.24
2018-07-01T12:31:40.153Z,24.29
2018-07-01T12:32:40.175Z,24.18
2018-07-01T12:33:40.206Z,24.25
2018-07-01T12:34:41.239Z,24.24
2018-07-01T12:35:40.174Z,24.25
2018-07-01T12:36:40.181Z,24.24
2018-07-01T12:37:40.111Z,24.31
2018-07-01T12:38:40.143Z,24.25
2018-07-01T12:39:40.206Z,24.26
2018-07-01T12:40:40.158Z,24.25
2018-07-01T12:41:41.905Z,24.19
2018-07-01T12:42:40.253Z,24.26
2018-07-01T12:43:40.237Z,24.21
2018-07-01T12:44:40.130Z,24.19
2018-07-01T12:45:40.367Z,24.24
2018-07-01T12:46:40.424Z,24.26
2018-07-01T12:47:40.210Z,24.25
2018-07-01T12:48:40.249Z,24.18
2018-07-01T12:49:40.857Z,24.25
2018-07-01T12:50:40.243Z,24.32
2018-07-01T12:51:40.230Z,24.28
2018-07-01T12:52:40.159Z,24.18
2018-07-01T12:53:40.161Z,24.26
2018-07-01T12:54:40.180Z,24.18
2018-07-01T12:55:40.162Z,24.22
2018-07-01T12:56:40.263Z,24.24
2018-07-01T12:57:40.209Z,24.22
2018-07-01T12:58:40.156Z,24.22
2018-07-01T12:59:40.181Z,24.19
2018-07-01T13:00:40.215Z,24.29
2018-07-01T13:01:40.195Z,24.26
2018-07-01T13:02:40.221Z,24.26
2018-07-01T13:03:40.256Z,24.16
2018-07-01T13:04:40.206Z,24.28
2018-07-01T13:05:40.223Z,24.31
2018-07-01T13:06:40.250Z,24.22
2018-07-01T13:07:40.176Z,24.25
2018-07-01T13:08:40.297Z,24.21
2018-07-01T13:09:40.606Z,24.22
2018-07-01T13:10:40.177Z,24.29
2018-07-01T13:11:40.253Z,24.28
2018-07-01T13:12:40.262Z,24.25
2018-07-01T13:13:40.265Z,24.21
2018-07-01T13:14:40.222Z,24.24
2018-07-01T13:15:40.255Z,24.25